sensor_id;sensor_type;location;lat;lon;timestamp;pressure;altitude;pressure_sealevel;temperature;humidity
71996;BME280;59862;47.732;7.346;2023-03-29T00:00:57;98381.35;;;8.67;48.01
71996;BME280;59862;47.732;7.346;2023-03-29T00:03:25;98377.52;;;8.66;47.94
71996;BME280;59862;47.732;7.346;2023-03-29T00:06:02;98379.18;;;8.71;47.25
71996;BME280;59862;47.732;7.346;2023-03-29T00:08:29;98382.52;;;8.69;47.88
71996;BME280;59862;47.732;7.346;2023-03-29T00:10:57;98383.53;;;8.64;48.12
71996;BME280;59862;47.732;7.346;2023-03-29T00:13:26;98375.81;;;8.61;48.25
71996;BME280;59862;47.732;7.346;2023-03-29T00:15:54;98388.20;;;8.62;48.59
71996;BME280;59862;47.732;7.346;2023-03-29T00:18:22;98390.83;;;8.54;49.00
71996;BME280;59862;47.732;7.346;2023-03-29T00:20:57;98388.33;;;8.56;48.96
71996;BME280;59862;47.732;7.346;2023-03-29T00:23:25;98386.33;;;8.58;48.48
71996;BME280;59862;47.732;7.346;2023-03-29T00:25:54;98382.33;;;8.62;48.60
71996;BME280;59862;47.732;7.346;2023-03-29T00:28:21;98389.06;;;8.66;48.73
71996;BME280;59862;47.732;7.346;2023-03-29T00:30:49;98395.41;;;8.69;49.21
71996;BME280;59862;47.732;7.346;2023-03-29T00:33:18;98383.05;;;8.68;48.02
71996;BME280;59862;47.732;7.346;2023-03-29T00:35:46;98379.03;;;8.68;47.92
71996;BME280;59862;47.732;7.346;2023-03-29T00:38:15;98375.34;;;8.73;48.15
71996;BME280;59862;47.732;7.346;2023-03-29T00:40:44;98377.17;;;8.73;48.13
71996;BME280;59862;47.732;7.346;2023-03-29T00:43:14;98380.39;;;8.76;48.77
71996;BME280;59862;47.732;7.346;2023-03-29T00:45:42;98377.04;;;8.74;48.25
71996;BME280;59862;47.732;7.346;2023-03-29T00:48:16;98380.75;;;8.85;48.38
71996;BME280;59862;47.732;7.346;2023-03-29T00:50:53;98369.22;;;8.93;48.29
71996;BME280;59862;47.732;7.346;2023-03-29T00:53:32;98377.92;;;8.99;48.85
71996;BME280;59862;47.732;7.346;2023-03-29T00:56:05;98370.42;;;9.06;47.44
71996;BME280;59862;47.732;7.346;2023-03-29T00:58:42;98372.56;;;8.99;46.95
71996;BME280;59862;47.732;7.346;2023-03-29T01:01:12;98380.81;;;9.09;46.69
71996;BME280;59862;47.732;7.346;2023-03-29T01:03:44;98368.41;;;9.12;46.19
71996;BME280;59862;47.732;7.346;2023-03-29T01:06:14;98362.08;;;9.22;47.06
71996;BME280;59862;47.732;7.346;2023-03-29T01:08:51;98371.80;;;9.35;47.17
71996;BME280;59862;47.732;7.346;2023-03-29T01:11:34;98379.33;;;9.35;44.80
71996;BME280;59862;47.732;7.346;2023-03-29T01:14:11;98367.95;;;9.41;45.25
71996;BME280;59862;47.732;7.346;2023-03-29T01:16:35;98368.12;;;9.44;44.93
71996;BME280;59862;47.732;7.346;2023-03-29T01:19:07;98352.03;;;9.56;45.31
71996;BME280;59862;47.732;7.346;2023-03-29T01:21:48;98352.03;;;9.56;45.31
71996;BME280;59862;47.732;7.346;2023-03-29T01:24:36;98354.39;;;9.59;44.46
71996;BME280;59862;47.732;7.346;2023-03-29T01:27:08;98355.39;;;9.70;45.27
71996;BME280;59862;47.732;7.346;2023-03-29T01:29:57;98354.70;;;9.76;44.34
71996;BME280;59862;47.732;7.346;2023-03-29T01:32:38;98354.34;;;9.79;44.82
71996;BME280;59862;47.732;7.346;2023-03-29T01:35:12;98346.16;;;9.68;44.54
71996;BME280;59862;47.732;7.346;2023-03-29T01:37:44;98346.16;;;9.68;44.54
71996;BME280;59862;47.732;7.346;2023-03-29T01:40:13;98344.98;;;9.71;45.50
71996;BME280;59862;47.732;7.346;2023-03-29T01:42:44;98345.98;;;9.78;45.28
71996;BME280;59862;47.732;7.346;2023-03-29T01:45:21;98345.32;;;9.76;45.00
71996;BME280;59862;47.732;7.346;2023-03-29T01:47:59;98348.98;;;9.91;44.76
71996;BME280;59862;47.732;7.346;2023-03-29T01:53:13;98350.67;;;9.80;45.42
71996;BME280;59862;47.732;7.346;2023-03-29T01:55:41;98350.67;;;9.80;45.42
71996;BME280;59862;47.732;7.346;2023-03-29T01:58:10;98336.43;;;9.79;45.29
71996;BME280;59862;47.732;7.346;2023-03-29T02:00:41;98349.16;;;9.81;45.51
71996;BME280;59862;47.732;7.346;2023-03-29T02:03:09;98349.34;;;9.76;44.78
71996;BME280;59862;47.732;7.346;2023-03-29T02:05:39;98349.34;;;9.76;44.78
71996;BME280;59862;47.732;7.346;2023-03-29T02:08:09;98347.66;;;9.75;43.93
71996;BME280;59862;47.732;7.346;2023-03-29T02:10:37;98347.64;;;9.79;44.57
71996;BME280;59862;47.732;7.346;2023-03-29T02:13:06;98348.64;;;9.86;44.82
71996;BME280;59862;47.732;7.346;2023-03-29T02:15:33;98335.73;;;9.85;44.37
71996;BME280;59862;47.732;7.346;2023-03-29T02:18:01;98343.41;;;10.01;45.05
71996;BME280;59862;47.732;7.346;2023-03-29T02:20:37;98343.41;;;10.01;45.05
71996;BME280;59862;47.732;7.346;2023-03-29T02:23:30;98346.78;;;10.03;44.32
71996;BME280;59862;47.732;7.346;2023-03-29T02:25:54;98348.29;;;9.97;44.07
71996;BME280;59862;47.732;7.346;2023-03-29T02:28:23;98348.29;;;9.97;44.98
71996;BME280;59862;47.732;7.346;2023-03-29T02:30:54;98348.97;;;9.95;45.42
71996;BME280;59862;47.732;7.346;2023-03-29T02:33:37;98349.95;;;9.94;44.77
71996;BME280;59862;47.732;7.346;2023-03-29T02:36:10;98353.00;;;9.91;44.95
71996;BME280;59862;47.732;7.346;2023-03-29T02:38:38;98346.96;;;9.93;45.17
71996;BME280;59862;47.732;7.346;2023-03-29T02:41:08;98353.98;;;9.94;46.29
71996;BME280;59862;47.732;7.346;2023-03-29T02:43:36;98356.02;;;9.88;46.05
71996;BME280;59862;47.732;7.346;2023-03-29T02:46:06;98346.31;;;9.75;43.98
71996;BME280;59862;47.732;7.346;2023-03-29T02:48:35;98336.95;;;9.67;45.51
71996;BME280;59862;47.732;7.346;2023-03-29T02:51:11;98341.98;;;9.74;44.45
71996;BME280;59862;47.732;7.346;2023-03-29T02:53:38;98338.78;;;9.70;44.72
71996;BME280;59862;47.732;7.346;2023-03-29T02:56:05;98344.31;;;9.73;45.25
71996;BME280;59862;47.732;7.346;2023-03-29T02:58:32;98343.81;;;9.73;45.17
71996;BME280;59862;47.732;7.346;2023-03-29T03:01:02;98345.32;;;9.76;44.70
71996;BME280;59862;47.732;7.346;2023-03-29T03:03:31;98343.97;;;9.80;44.28
71996;BME280;59862;47.732;7.346;2023-03-29T03:06:00;98340.30;;;9.81;44.72
71996;BME280;59862;47.732;7.346;2023-03-29T03:08:28;98340.30;;;9.81;44.72
71996;BME280;59862;47.732;7.346;2023-03-29T03:10:55;98330.23;;;9.75;44.33
71996;BME280;59862;47.732;7.346;2023-03-29T03:13:23;98333.93;;;9.78;44.73
71996;BME280;59862;47.732;7.346;2023-03-29T03:15:51;98333.08;;;9.77;44.67
71996;BME280;59862;47.732;7.346;2023-03-29T03:18:19;98333.08;;;9.77;44.67
71996;BME280;59862;47.732;7.346;2023-03-29T03:20:59;98335.58;;;9.79;44.56
71996;BME280;59862;47.732;7.346;2023-03-29T03:23:24;98330.41;;;9.77;44.31
71996;BME280;59862;47.732;7.346;2023-03-29T03:25:53;98338.13;;;9.76;44.50
71996;BME280;59862;47.732;7.346;2023-03-29T03:28:22;98323.89;;;9.76;45.00
71996;BME280;59862;47.732;7.346;2023-03-29T03:30:50;98321.88;;;9.74;45.03
71996;BME280;59862;47.732;7.346;2023-03-29T03:33:19;98321.88;;;9.74;45.03
71996;BME280;59862;47.732;7.346;2023-03-29T03:35:47;98321.39;;;9.74;44.99
71996;BME280;59862;47.732;7.346;2023-03-29T03:38:14;98327.39;;;9.72;45.88
71996;BME280;59862;47.732;7.346;2023-03-29T03:40:42;98329.75;;;9.71;45.34
71996;BME280;59862;47.732;7.346;2023-03-29T03:43:09;98329.75;;;9.71;45.34
71996;BME280;59862;47.732;7.346;2023-03-29T03:45:37;98323.22;;;9.74;46.06
71996;BME280;59862;47.732;7.346;2023-03-29T03:48:05;98324.55;;;9.66;45.46
71996;BME280;59862;47.732;7.346;2023-03-29T03:50:32;98318.88;;;9.61;45.95
71996;BME280;59862;47.732;7.346;2023-03-29T03:53:00;98325.89;;;9.66;46.19
71996;BME280;59862;47.732;7.346;2023-03-29T03:55:27;98335.78;;;9.69;46.29
71996;BME280;59862;47.732;7.346;2023-03-29T03:57:55;98338.63;;;9.72;46.38
71996;BME280;59862;47.732;7.346;2023-03-29T04:00:23;98350.01;;;9.78;46.88
71996;BME280;59862;47.732;7.346;2023-03-29T04:02:52;98348.31;;;9.89;47.60
71996;BME280;59862;47.732;7.346;2023-03-29T04:05:22;98348.66;;;9.82;47.92
71996;BME280;59862;47.732;7.346;2023-03-29T04:07:49;98351.16;;;9.83;48.96
71996;BME280;59862;47.732;7.346;2023-03-29T04:10:17;98347.31;;;9.82;49.07
71996;BME280;59862;47.732;7.346;2023-03-29T04:12:46;98347.51;;;9.76;49.57
71996;BME280;59862;47.732;7.346;2023-03-29T04:15:13;98339.64;;;9.47;48.48
71996;BME280;59862;47.732;7.346;2023-03-29T04:17:42;98325.58;;;9.21;48.83
71996;BME280;59862;47.732;7.346;2023-03-29T04:20:10;98325.58;;;9.21;48.83
71996;BME280;59862;47.732;7.346;2023-03-29T04:22:38;98328.75;;;9.12;49.06
71996;BME280;59862;47.732;7.346;2023-03-29T04:25:07;98328.75;;;9.12;49.06
71996;BME280;59862;47.732;7.346;2023-03-29T04:27:36;98329.45;;;9.26;50.04
71996;BME280;59862;47.732;7.346;2023-03-29T04:30:05;98339.31;;;9.34;49.10
71996;BME280;59862;47.732;7.346;2023-03-29T04:32:32;98339.64;;;9.43;50.18
71996;BME280;59862;47.732;7.346;2023-03-29T04:35:00;98339.64;;;9.43;50.18
71996;BME280;59862;47.732;7.346;2023-03-29T04:37:30;98349.53;;;9.54;50.79
71996;BME280;59862;47.732;7.346;2023-03-29T04:39:58;98349.53;;;9.54;50.79
71996;BME280;59862;47.732;7.346;2023-03-29T04:42:33;98338.98;;;9.37;51.08
71996;BME280;59862;47.732;7.346;2023-03-29T04:45:00;98331.57;;;8.90;51.54
71996;BME280;59862;47.732;7.346;2023-03-29T04:47:28;98313.98;;;8.68;51.90
71996;BME280;59862;47.732;7.346;2023-03-29T04:49:56;98314.78;;;8.60;52.65
71996;BME280;59862;47.732;7.346;2023-03-29T04:52:23;98311.45;;;8.62;53.10
71996;BME280;59862;47.732;7.346;2023-03-29T04:54:52;98308.94;;;8.57;53.73
71996;BME280;59862;47.732;7.346;2023-03-29T04:57:20;98320.12;;;8.52;54.24
71996;BME280;59862;47.732;7.346;2023-03-29T04:59:47;98311.56;;;8.45;54.64
71996;BME280;59862;47.732;7.346;2023-03-29T05:02:14;98318.77;;;8.44;56.28
71996;BME280;59862;47.732;7.346;2023-03-29T05:04:42;98318.09;;;8.42;55.85
71996;BME280;59862;47.732;7.346;2023-03-29T05:07:09;98319.08;;;8.41;55.88
71996;BME280;59862;47.732;7.346;2023-03-29T05:09:38;98321.06;;;8.31;53.58
71996;BME280;59862;47.732;7.346;2023-03-29T05:12:07;98324.23;;;8.34;56.08
71996;BME280;59862;47.732;7.346;2023-03-29T05:14:34;98331.59;;;8.36;55.66
71996;BME280;59862;47.732;7.346;2023-03-29T05:17:02;98325.95;;;8.44;56.17
71996;BME280;59862;47.732;7.346;2023-03-29T05:19:30;98331.48;;;8.50;56.31
71996;BME280;59862;47.732;7.346;2023-03-29T05:21:59;98329.13;;;8.51;54.63
71996;BME280;59862;47.732;7.346;2023-03-29T05:24:26;98336.83;;;8.50;54.38
71996;BME280;59862;47.732;7.346;2023-03-29T05:26:54;98329.67;;;8.59;54.54
71996;BME280;59862;47.732;7.346;2023-03-29T05:29:21;98333.69;;;8.59;52.28
71996;BME280;59862;47.732;7.346;2023-03-29T05:31:50;98338.20;;;8.62;53.39
71996;BME280;59862;47.732;7.346;2023-03-29T05:34:18;98336.23;;;8.72;51.88
71996;BME280;59862;47.732;7.346;2023-03-29T05:36:45;98330.22;;;8.74;51.64
71996;BME280;59862;47.732;7.346;2023-03-29T05:39:14;98329.20;;;8.79;51.36
71996;BME280;59862;47.732;7.346;2023-03-29T05:41:41;98324.87;;;8.86;50.53
71996;BME280;59862;47.732;7.346;2023-03-29T05:44:09;98331.25;;;8.89;50.63
71996;BME280;59862;47.732;7.346;2023-03-29T05:46:36;98321.71;;;8.91;49.74
71996;BME280;59862;47.732;7.346;2023-03-29T05:49:03;98325.73;;;8.99;49.84
71996;BME280;59862;47.732;7.346;2023-03-29T05:51:31;98326.43;;;9.05;49.92
71996;BME280;59862;47.732;7.346;2023-03-29T05:54:01;98331.44;;;9.08;49.33
71996;BME280;59862;47.732;7.346;2023-03-29T05:56:28;98332.95;;;9.10;49.44
71996;BME280;59862;47.732;7.346;2023-03-29T05:58:55;98332.95;;;9.10;49.44
71996;BME280;59862;47.732;7.346;2023-03-29T06:01:24;98333.61;;;9.12;48.69
71996;BME280;59862;47.732;7.346;2023-03-29T06:03:51;98323.26;;;9.13;49.04
71996;BME280;59862;47.732;7.346;2023-03-29T06:06:19;98325.58;;;9.12;49.34
71996;BME280;59862;47.732;7.346;2023-03-29T06:08:47;98327.27;;;9.18;48.84
71996;BME280;59862;47.732;7.346;2023-03-29T06:11:14;98330.96;;;9.29;48.90
71996;BME280;59862;47.732;7.346;2023-03-29T06:13:43;98333.11;;;9.29;48.96
71996;BME280;59862;47.732;7.346;2023-03-29T06:16:10;98316.55;;;9.26;49.23
71996;BME280;59862;47.732;7.346;2023-03-29T06:18:38;98316.55;;;9.26;49.23
71996;BME280;59862;47.732;7.346;2023-03-29T06:21:07;98334.13;;;9.36;49.03
71996;BME280;59862;47.732;7.346;2023-03-29T06:23:35;98330.95;;;9.37;49.54
71996;BME280;59862;47.732;7.346;2023-03-29T06:26:02;98319.08;;;9.35;49.70
71996;BME280;59862;47.732;7.346;2023-03-29T06:28:31;98317.58;;;9.29;50.02
71996;BME280;59862;47.732;7.346;2023-03-29T06:30:58;98324.44;;;9.31;49.83
71996;BME280;59862;47.732;7.346;2023-03-29T06:33:31;98333.11;;;9.25;49.66
71996;BME280;59862;47.732;7.346;2023-03-29T06:35:59;98332.30;;;9.29;49.69
71996;BME280;59862;47.732;7.346;2023-03-29T06:38:27;98332.61;;;9.30;50.14
71996;BME280;59862;47.732;7.346;2023-03-29T06:41:00;98327.78;;;9.33;49.36
71996;BME280;59862;47.732;7.346;2023-03-29T06:43:28;98327.78;;;9.33;49.36
71996;BME280;59862;47.732;7.346;2023-03-29T06:45:58;98324.59;;;9.42;49.70
71996;BME280;59862;47.732;7.346;2023-03-29T06:48:25;98326.27;;;9.39;49.29
71996;BME280;59862;47.732;7.346;2023-03-29T06:50:53;98324.25;;;9.41;49.59
71996;BME280;59862;47.732;7.346;2023-03-29T06:53:21;98304.66;;;9.36;49.63
71996;BME280;59862;47.732;7.346;2023-03-29T06:55:49;98306.34;;;9.45;49.75
71996;BME280;59862;47.732;7.346;2023-03-29T06:58:17;98300.16;;;9.53;49.35
71996;BME280;59862;47.732;7.346;2023-03-29T07:00:45;98302.31;;;9.61;49.09
71996;BME280;59862;47.732;7.346;2023-03-29T07:03:13;98302.81;;;9.61;49.25
71996;BME280;59862;47.732;7.346;2023-03-29T07:05:43;98306.47;;;9.64;50.00
71996;BME280;59862;47.732;7.346;2023-03-29T07:08:11;98316.86;;;9.67;49.36
71996;BME280;59862;47.732;7.346;2023-03-29T07:10:43;98319.22;;;9.70;49.31
71996;BME280;59862;47.732;7.346;2023-03-29T07:13:13;98326.91;;;9.81;49.64
71996;BME280;59862;47.732;7.346;2023-03-29T07:15:42;98327.23;;;9.78;50.00
71996;BME280;59862;47.732;7.346;2023-03-29T07:18:10;98339.14;;;9.51;50.86
71996;BME280;59862;47.732;7.346;2023-03-29T07:20:38;98335.97;;;9.68;50.46
71996;BME280;59862;47.732;7.346;2023-03-29T07:23:07;98337.63;;;9.81;50.50
71996;BME280;59862;47.732;7.346;2023-03-29T07:25:36;98336.77;;;9.72;50.54
71996;BME280;59862;47.732;7.346;2023-03-29T07:28:04;98335.29;;;9.70;50.59
71996;BME280;59862;47.732;7.346;2023-03-29T07:30:32;98336.10;;;9.70;50.83
71996;BME280;59862;47.732;7.346;2023-03-29T07:32:59;98339.80;;;9.73;50.62
71996;BME280;59862;47.732;7.346;2023-03-29T07:35:27;98347.66;;;9.75;50.60
71996;BME280;59862;47.732;7.346;2023-03-29T07:37:56;98351.72;;;9.55;50.55
71996;BME280;59862;47.732;7.346;2023-03-29T07:40:24;98354.86;;;9.66;51.00
71996;BME280;59862;47.732;7.346;2023-03-29T07:42:55;98356.88;;;9.76;50.84
71996;BME280;59862;47.732;7.346;2023-03-29T07:45:25;98354.03;;;9.78;51.05
71996;BME280;59862;47.732;7.346;2023-03-29T07:47:57;98360.06;;;9.76;51.05
71996;BME280;59862;47.732;7.346;2023-03-29T07:50:26;98372.61;;;9.79;50.79
71996;BME280;59862;47.732;7.346;2023-03-29T07:52:54;98378.45;;;9.95;50.64
71996;BME280;59862;47.732;7.346;2023-03-29T07:55:22;98378.45;;;9.95;50.64
71996;BME280;59862;47.732;7.346;2023-03-29T07:57:49;98382.13;;;10.02;50.02
71996;BME280;59862;47.732;7.346;2023-03-29T08:00:17;98379.08;;;10.09;50.31
71996;BME280;59862;47.732;7.346;2023-03-29T08:02:47;98386.80;;;10.20;49.44
71996;BME280;59862;47.732;7.346;2023-03-29T08:05:21;98375.39;;;10.22;49.12
71996;BME280;59862;47.732;7.346;2023-03-29T08:07:48;98380.41;;;10.29;49.64
71996;BME280;59862;47.732;7.346;2023-03-29T08:10:17;98376.59;;;10.24;48.79
71996;BME280;59862;47.732;7.346;2023-03-29T08:12:47;98374.75;;;10.24;48.92
71996;BME280;59862;47.732;7.346;2023-03-29T08:15:15;98365.62;;;10.37;48.79
71996;BME280;59862;47.732;7.346;2023-03-29T08:17:43;98365.62;;;10.37;48.79
71996;BME280;59862;47.732;7.346;2023-03-29T08:20:13;98371.30;;;10.46;49.32
71996;BME280;59862;47.732;7.346;2023-03-29T08:22:41;98369.91;;;10.62;48.74
71996;BME280;59862;47.732;7.346;2023-03-29T08:25:09;98372.08;;;10.59;49.19
71996;BME280;59862;47.732;7.346;2023-03-29T08:27:38;98366.19;;;10.63;48.72
71996;BME280;59862;47.732;7.346;2023-03-29T08:30:07;98368.04;;;10.67;48.93
71996;BME280;59862;47.732;7.346;2023-03-29T08:32:36;98362.56;;;10.48;48.53
71996;BME280;59862;47.732;7.346;2023-03-29T08:35:05;98367.90;;;10.60;49.35
71996;BME280;59862;47.732;7.346;2023-03-29T08:37:35;98369.20;;;10.68;48.92
71996;BME280;59862;47.732;7.346;2023-03-29T08:40:04;98366.06;;;10.61;48.75
71996;BME280;59862;47.732;7.346;2023-03-29T08:42:52;98370.86;;;10.74;48.98
71996;BME280;59862;47.732;7.346;2023-03-29T08:51:05;98360.39;;;10.87;49.51
71996;BME280;59862;47.732;7.346;2023-03-29T08:53:32;98370.20;;;10.98;48.77
71996;BME280;59862;47.732;7.346;2023-03-29T08:56:03;98378.36;;;11.13;48.67
71996;BME280;59862;47.732;7.346;2023-03-29T08:58:32;98368.93;;;11.17;48.39
71996;BME280;59862;47.732;7.346;2023-03-29T09:01:03;98380.66;;;11.42;49.18
71996;BME280;59862;47.732;7.346;2023-03-29T09:06:20;98381.88;;;11.81;48.05
71996;BME280;59862;47.732;7.346;2023-03-29T09:08:49;98373.78;;;11.85;47.65
71996;BME280;59862;47.732;7.346;2023-03-29T09:11:35;98368.81;;;12.11;48.52
71996;BME280;59862;47.732;7.346;2023-03-29T09:14:34;98365.62;;;12.27;46.51
71996;BME280;59862;47.732;7.346;2023-03-29T09:17:16;98366.36;;;12.50;47.34
71996;BME280;59862;47.732;7.346;2023-03-29T09:19:59;98364.65;;;12.53;46.89
71996;BME280;59862;47.732;7.346;2023-03-29T09:28:16;98357.19;;;12.84;47.20
71996;BME280;59862;47.732;7.346;2023-03-29T09:30:56;98353.09;;;12.88;47.52
71996;BME280;59862;47.732;7.346;2023-03-29T09:33:24;98352.14;;;13.10;46.91
71996;BME280;59862;47.732;7.346;2023-03-29T09:38:28;98353.48;;;12.95;43.73
71996;BME280;59862;47.732;7.346;2023-03-29T09:41:03;98353.40;;;12.89;45.53
71996;BME280;59862;47.732;7.346;2023-03-29T09:43:35;98355.66;;;12.96;45.00
71996;BME280;59862;47.732;7.346;2023-03-29T09:46:07;98365.72;;;13.13;44.47
71996;BME280;59862;47.732;7.346;2023-03-29T09:48:37;98358.48;;;13.34;43.93
71996;BME280;59862;47.732;7.346;2023-03-29T09:51:06;98361.31;;;13.26;44.33
71996;BME280;59862;47.732;7.346;2023-03-29T09:53:35;98352.02;;;13.39;44.90
71996;BME280;59862;47.732;7.346;2023-03-29T09:56:04;98349.19;;;13.47;43.97
71996;BME280;59862;47.732;7.346;2023-03-29T09:58:33;98347.06;;;13.75;43.77
71996;BME280;59862;47.732;7.346;2023-03-29T10:01:04;98346.22;;;14.02;42.94
71996;BME280;59862;47.732;7.346;2023-03-29T10:03:35;98337.32;;;14.29;41.81
71996;BME280;59862;47.732;7.346;2023-03-29T10:06:05;98338.67;;;14.29;41.64
71996;BME280;59862;47.732;7.346;2023-03-29T10:08:44;98339.48;;;14.29;41.53
71996;BME280;59862;47.732;7.346;2023-03-29T10:11:12;98335.70;;;14.58;40.70
71996;BME280;59862;47.732;7.346;2023-03-29T10:13:43;98340.27;;;14.81;39.97
71996;BME280;59862;47.732;7.346;2023-03-29T10:16:20;98331.42;;;15.00;39.84
71996;BME280;59862;47.732;7.346;2023-03-29T10:18:43;98328.09;;;15.42;39.91
71996;BME280;59862;47.732;7.346;2023-03-29T10:21:15;98328.03;;;15.98;38.93
71996;BME280;59862;47.732;7.346;2023-03-29T10:23:43;98333.89;;;16.43;37.93
71996;BME280;59862;47.732;7.346;2023-03-29T10:28:46;98331.32;;;17.19;37.33
71996;BME280;59862;47.732;7.346;2023-03-29T10:31:19;98336.36;;;17.47;35.41
71996;BME280;59862;47.732;7.346;2023-03-29T10:33:53;98322.95;;;17.20;35.38
71996;BME280;59862;47.732;7.346;2023-03-29T10:36:22;98320.36;;;17.38;35.30
71996;BME280;59862;47.732;7.346;2023-03-29T10:38:51;98310.57;;;17.53;35.29
71996;BME280;59862;47.732;7.346;2023-03-29T10:41:22;98313.09;;;17.64;35.23
71996;BME280;59862;47.732;7.346;2023-03-29T10:43:50;98304.19;;;18.06;34.66
71996;BME280;59862;47.732;7.346;2023-03-29T10:46:28;98298.78;;;18.33;34.05
71996;BME280;59862;47.732;7.346;2023-03-29T10:48:57;98297.08;;;18.84;33.70
71996;BME280;59862;47.732;7.346;2023-03-29T10:51:27;98292.64;;;19.49;33.65
71996;BME280;59862;47.732;7.346;2023-03-29T10:53:58;98283.60;;;19.57;34.05
71996;BME280;59862;47.732;7.346;2023-03-29T10:56:44;98282.59;;;19.61;33.38
71996;BME280;59862;47.732;7.346;2023-03-29T11:10:39;98281.04;;;18.12;35.48
71996;BME280;59862;47.732;7.346;2023-03-29T11:16:04;98289.69;;;18.55;33.68
71996;BME280;59862;47.732;7.346;2023-03-29T11:18:41;98287.57;;;18.66;32.29
71996;BME280;59862;47.732;7.346;2023-03-29T11:21:25;98286.97;;;18.64;32.53
71996;BME280;59862;47.732;7.346;2023-03-29T11:24:26;98289.20;;;18.94;33.42
71996;BME280;59862;47.732;7.346;2023-03-29T11:29:41;98283.76;;;18.94;32.23
71996;BME280;59862;47.732;7.346;2023-03-29T11:32:17;98283.30;;;19.27;33.34
71996;BME280;59862;47.732;7.346;2023-03-29T11:41:23;98288.72;;;18.49;31.69
71996;BME280;59862;47.732;7.346;2023-03-29T11:43:21;98284.48;;;18.53;32.11
71996;BME280;59862;47.732;7.346;2023-03-29T11:45:57;98281.97;;;18.70;31.53
71996;BME280;59862;47.732;7.346;2023-03-29T11:48:31;98273.82;;;18.61;32.80
71996;BME280;59862;47.732;7.346;2023-03-29T11:51:13;98274.42;;;18.54;32.55
71996;BME280;59862;47.732;7.346;2023-03-29T11:53:53;98267.34;;;18.71;32.32
71996;BME280;59862;47.732;7.346;2023-03-29T11:56:21;98268.30;;;18.67;32.64
71996;BME280;59862;47.732;7.346;2023-03-29T11:58:51;98257.06;;;18.73;32.66
71996;BME280;59862;47.732;7.346;2023-03-29T12:01:32;98258.70;;;18.83;32.98
71996;BME280;59862;47.732;7.346;2023-03-29T12:04:00;98255.22;;;18.85;32.43
71996;BME280;59862;47.732;7.346;2023-03-29T12:06:41;98252.95;;;18.82;32.42
71996;BME280;59862;47.732;7.346;2023-03-29T12:12:09;98240.91;;;19.19;32.84
71996;BME280;59862;47.732;7.346;2023-03-29T12:17:08;98240.34;;;18.87;33.33
71996;BME280;59862;47.732;7.346;2023-03-29T12:22:08;98240.00;;;18.57;33.39
71996;BME280;59862;47.732;7.346;2023-03-29T12:24:38;98232.09;;;18.46;33.16
71996;BME280;59862;47.732;7.346;2023-03-29T12:30:34;98235.84;;;18.63;33.07
71996;BME280;59862;47.732;7.346;2023-03-29T12:35:37;98237.89;;;18.59;33.09
71996;BME280;59862;47.732;7.346;2023-03-29T12:40:46;98230.56;;;18.98;33.22
71996;BME280;59862;47.732;7.346;2023-03-29T12:43:25;98230.58;;;18.89;32.42
71996;BME280;59862;47.732;7.346;2023-03-29T12:46:05;98228.48;;;19.12;32.64
71996;BME280;59862;47.732;7.346;2023-03-29T12:48:26;98226.72;;;18.97;32.84
71996;BME280;59862;47.732;7.346;2023-03-29T12:51:12;98211.02;;;18.89;33.33
71996;BME280;59862;47.732;7.346;2023-03-29T12:53:58;98208.95;;;19.03;32.77
71996;BME280;59862;47.732;7.346;2023-03-29T12:56:21;98210.14;;;19.07;31.75
71996;BME280;59862;47.732;7.346;2023-03-29T12:58:55;98203.59;;;19.17;31.45
71996;BME280;59862;47.732;7.346;2023-03-29T13:06:49;98200.92;;;19.61;31.49
71996;BME280;59862;47.732;7.346;2023-03-29T13:09:23;98208.80;;;19.72;30.59
71996;BME280;59862;47.732;7.346;2023-03-29T13:11:55;98207.25;;;19.76;31.00
71996;BME280;59862;47.732;7.346;2023-03-29T13:14:26;98208.20;;;19.70;30.97
71996;BME280;59862;47.732;7.346;2023-03-29T13:17:00;98216.92;;;19.28;30.62
71996;BME280;59862;47.732;7.346;2023-03-29T13:19:42;98212.63;;;19.29;31.07
71996;BME280;59862;47.732;7.346;2023-03-29T13:33:26;98216.58;;;23.93;25.33
71996;BME280;59862;47.732;7.346;2023-03-29T13:36:02;98217.28;;;25.95;23.03
71996;BME280;59862;47.732;7.346;2023-03-29T13:38:29;98228.54;;;27.08;21.87
71996;BME280;59862;47.732;7.346;2023-03-29T13:41:44;98215.14;;;27.40;20.83
71996;BME280;59862;47.732;7.346;2023-03-29T13:46:59;98210.98;;;27.45;20.99
71996;BME280;59862;47.732;7.346;2023-03-29T13:48:53;98214.23;;;27.54;20.87
71996;BME280;59862;47.732;7.346;2023-03-29T13:51:26;98206.00;;;26.19;22.34
71996;BME280;59862;47.732;7.346;2023-03-29T13:54:05;98208.55;;;26.89;21.48
71996;BME280;59862;47.732;7.346;2023-03-29T13:56:38;98208.38;;;27.97;20.56
71996;BME280;59862;47.732;7.346;2023-03-29T13:59:18;98214.52;;;27.07;21.74
71996;BME280;59862;47.732;7.346;2023-03-29T14:01:58;98204.37;;;26.18;22.44
71996;BME280;59862;47.732;7.346;2023-03-29T14:04:30;98206.02;;;25.43;22.77
71996;BME280;59862;47.732;7.346;2023-03-29T14:06:58;98193.41;;;25.73;23.52
71996;BME280;59862;47.732;7.346;2023-03-29T14:09:29;98193.94;;;25.90;24.03
71996;BME280;59862;47.732;7.346;2023-03-29T14:12:00;98203.07;;;24.73;24.34
71996;BME280;59862;47.732;7.346;2023-03-29T14:14:30;98203.13;;;23.28;26.30
71996;BME280;59862;47.732;7.346;2023-03-29T14:17:00;98188.91;;;23.00;26.68
71996;BME280;59862;47.732;7.346;2023-03-29T14:19:37;98178.83;;;22.16;27.95
71996;BME280;59862;47.732;7.346;2023-03-29T14:22:06;98186.50;;;22.38;27.71
71996;BME280;59862;47.732;7.346;2023-03-29T14:24:39;98185.53;;;22.06;27.19
71996;BME280;59862;47.732;7.346;2023-03-29T14:27:09;98180.00;;;22.88;27.03
71996;BME280;59862;47.732;7.346;2023-03-29T14:29:37;98176.05;;;23.61;25.84
71996;BME280;59862;47.732;7.346;2023-03-29T14:32:17;98179.51;;;23.47;25.25
71996;BME280;59862;47.732;7.346;2023-03-29T14:34:42;98177.18;;;23.65;25.34
71996;BME280;59862;47.732;7.346;2023-03-29T14:37:12;98186.62;;;23.79;25.20
71996;BME280;59862;47.732;7.346;2023-03-29T14:39:41;98174.52;;;23.73;24.89
71996;BME280;59862;47.732;7.346;2023-03-29T14:42:15;98175.50;;;23.59;25.72
71996;BME280;59862;47.732;7.346;2023-03-29T14:44:46;98182.21;;;23.17;25.65
71996;BME280;59862;47.732;7.346;2023-03-29T14:47:28;98174.09;;;22.52;26.58